Time;durP1;ratioP1;P1;durP2;ratioP2;P2;SDS_P1;SDS_P2;PMS_P1;PMS_P2;Temp;Humidity;BMP_temperature;BMP_pressure;BME280_temperature;BME280_humidity;BME280_pressure;Samples;Min_cycle;Max_cycle;Signal;HPM_P1;HPM_P2
2023/12/21 00:01:43;;;;;;;0.30;0.30;;;3.40;99.90;;;;;;4993497;28;20279;-62
2023/12/21 00:04:09;;;;;;;0.40;0.40;;;3.50;99.90;;;;;;4994279;28;20178;-63
2023/12/21 00:06:35;;;;;;;0.50;0.47;;;3.50;99.90;;;;;;4994311;28;20176;-63
2023/12/21 00:09:00;;;;;;;0.40;0.40;;;3.60;99.90;;;;;;4994486;28;20904;-63
2023/12/21 00:11:26;;;;;;;0.60;0.60;;;3.80;99.90;;;;;;4993766;28;20243;-63
2023/12/21 00:13:52;;;;;;;0.53;0.53;;;4.00;99.90;;;;;;4993925;28;20184;-63
2023/12/21 00:16:18;;;;;;;0.60;0.60;;;4.00;99.90;;;;;;4994011;28;20478;-63
2023/12/21 00:18:43;;;;;;;0.40;0.40;;;4.00;99.90;;;;;;4993922;28;20176;-63
2023/12/21 00:21:09;;;;;;;0.50;0.50;;;3.90;99.90;;;;;;4993592;28;20200;-63
2023/12/21 00:23:35;;;;;;;0.30;0.30;;;3.90;99.90;;;;;;4993889;28;20168;-63
2023/12/21 00:26:00;;;;;;;0.40;0.40;;;4.00;99.90;;;;;;4993864;28;20202;-63
2023/12/21 00:28:26;;;;;;;0.50;0.50;;;4.10;99.90;;;;;;4993689;28;20172;-63
2023/12/21 00:30:52;;;;;;;0.40;0.40;;;4.20;99.90;;;;;;4993373;28;20192;-63
2023/12/21 00:33:17;;;;;;;0.40;0.40;;;4.30;99.90;;;;;;4993883;28;20192;-63
2023/12/21 00:35:43;;;;;;;0.40;0.40;;;4.30;99.90;;;;;;4993689;28;20252;-63
2023/12/21 00:38:09;;;;;;;1.00;1.00;;;4.40;99.90;;;;;;4993586;28;20207;-62
2023/12/21 00:40:34;;;;;;;0.33;0.33;;;4.50;99.90;;;;;;4993095;28;20641;-62
2023/12/21 00:43:00;;;;;;;0.70;0.70;;;4.50;99.90;;;;;;4993358;28;20169;-63
2023/12/21 00:45:26;;;;;;;1.33;0.53;;;4.50;99.90;;;;;;4993696;28;20408;-63
2023/12/21 00:47:52;;;;;;;0.50;0.40;;;4.50;99.90;;;;;;4993613;28;20411;-63
2023/12/21 00:50:18;;;;;;;0.80;0.43;;;4.60;99.90;;;;;;4993076;28;20905;-63
2023/12/21 00:52:43;;;;;;;0.50;0.50;;;4.60;99.90;;;;;;4993265;28;20580;-62
2023/12/21 00:55:09;;;;;;;0.37;0.37;;;4.60;99.90;;;;;;4993320;28;20611;-63
2023/12/21 00:57:35;;;;;;;0.30;0.30;;;4.50;99.90;;;;;;4992991;28;20581;-62
2023/12/21 01:00:01;;;;;;;0.40;0.40;;;4.50;99.90;;;;;;4992927;28;20470;-62
2023/12/21 01:02:26;;;;;;;5.93;1.40;;;4.50;99.90;;;;;;4993083;28;20674;-63
2023/12/21 01:04:52;;;;;;;0.53;0.53;;;4.50;99.90;;;;;;4993215;28;20613;-63
2023/12/21 01:07:17;;;;;;;0.60;0.60;;;4.50;99.90;;;;;;4993106;28;20179;-63
2023/12/21 01:09:43;;;;;;;0.50;0.50;;;4.50;99.90;;;;;;4993235;28;20200;-63
2023/12/21 01:12:09;;;;;;;0.97;0.97;;;4.40;99.90;;;;;;4992854;28;20227;-62
2023/12/21 01:14:35;;;;;;;0.37;0.37;;;4.40;99.90;;;;;;4992297;28;20183;-63
2023/12/21 01:17:00;;;;;;;0.40;0.40;;;4.40;99.90;;;;;;4993015;28;20700;-63
2023/12/21 01:19:26;;;;;;;0.40;0.40;;;4.40;99.90;;;;;;4992852;28;20267;-63
2023/12/21 01:21:52;;;;;;;1.03;0.50;;;4.40;99.90;;;;;;4992626;28;20184;-63
2023/12/21 01:24:18;;;;;;;0.40;0.40;;;4.40;99.90;;;;;;4992825;28;20408;-63
2023/12/21 01:26:43;;;;;;;0.60;0.60;;;4.40;99.90;;;;;;4993096;28;20535;-63
2023/12/21 01:29:09;;;;;;;0.37;0.37;;;4.30;99.90;;;;;;4992653;28;20411;-63
2023/12/21 01:31:35;;;;;;;0.40;0.40;;;4.40;99.90;;;;;;4992361;28;20423;-63
2023/12/21 01:34:05;;;;;;;0.40;0.40;;;4.30;99.90;;;;;;4992610;28;20215;-63
2023/12/21 01:36:31;;;;;;;0.40;0.40;;;4.20;99.90;;;;;;4992568;28;20274;-63
2023/12/21 01:38:56;;;;;;;0.50;0.50;;;4.20;99.90;;;;;;4992561;28;20172;-63
2023/12/21 01:41:22;;;;;;;0.50;0.50;;;4.20;99.90;;;;;;4992000;28;20210;-63
2023/12/21 01:43:48;;;;;;;0.30;0.30;;;4.30;99.90;;;;;;4992451;28;20164;-63
2023/12/21 01:46:14;;;;;;;0.60;0.60;;;4.30;99.90;;;;;;4992672;28;20191;-63
2023/12/21 01:48:42;;;;;;;0.40;0.40;;;4.20;99.90;;;;;;4992418;28;20690;-63
2023/12/21 01:51:09;;;;;;;0.38;0.38;;;4.30;99.90;;;;;;4992172;28;20187;-63
2023/12/21 01:53:36;;;;;;;0.50;0.40;;;4.30;99.90;;;;;;4992403;28;20183;-63
2023/12/21 01:56:03;;;;;;;0.40;0.40;;;4.30;99.90;;;;;;4992286;28;20184;-63
2023/12/21 01:58:31;;;;;;;0.30;0.30;;;4.30;99.90;;;;;;4992435;28;20624;-63
2023/12/21 02:00:58;;;;;;;1.13;1.02;;;4.20;99.90;;;;;;4992060;28;20204;-63
2023/12/21 02:03:26;;;;;;;0.73;0.73;;;4.20;99.90;;;;;;4992311;28;20187;-63
2023/12/21 02:05:51;;;;;;;0.30;0.30;;;4.10;99.90;;;;;;4992298;28;20173;-62
2023/12/21 02:08:17;;;;;;;0.40;0.40;;;4.10;99.90;;;;;;4992196;28;20235;-62
2023/12/21 02:10:43;;;;;;;0.37;0.37;;;4.20;99.90;;;;;;4991889;28;20199;-62
2023/12/21 02:13:08;;;;;;;0.40;0.40;;;4.20;99.90;;;;;;4992340;28;20681;-62
2023/12/21 02:15:34;;;;;;;0.53;0.53;;;4.20;99.90;;;;;;4992165;28;20259;-63
2023/12/21 02:18:02;;;;;;;0.40;0.40;;;4.20;99.90;;;;;;4992382;28;20200;-62
2023/12/21 02:20:29;;;;;;;0.47;0.47;;;4.20;99.90;;;;;;4991849;28;20191;-62
2023/12/21 02:22:59;;;;;;;0.40;0.40;;;4.20;99.90;;;;;;4992110;28;20641;-62
2023/12/21 02:25:25;;;;;;;0.47;0.40;;;4.10;99.90;;;;;;4993444;28;20176;-62
2023/12/21 02:27:50;;;;;;;0.32;0.32;;;4.10;99.90;;;;;;4995996;28;20603;-63
2023/12/21 02:30:17;;;;;;;0.40;0.40;;;4.10;99.90;;;;;;4995706;28;20180;-62
2023/12/21 02:32:42;;;;;;;0.40;0.40;;;4.10;99.90;;;;;;4995828;28;20442;-62
2023/12/21 02:35:08;;;;;;;0.50;0.50;;;4.10;99.90;;;;;;4995860;28;20184;-63
2023/12/21 02:37:34;;;;;;;0.40;0.40;;;4.20;99.90;;;;;;4995698;28;20196;-63
2023/12/21 02:39:59;;;;;;;0.30;0.30;;;4.10;99.90;;;;;;4995578;28;20542;-63
2023/12/21 02:42:25;;;;;;;0.87;0.87;;;4.10;99.90;;;;;;4995560;28;20274;-62
2023/12/21 02:44:50;;;;;;;0.50;0.50;;;4.10;99.90;;;;;;4995762;28;20215;-63
2023/12/21 02:47:16;;;;;;;0.50;0.50;;;3.90;99.90;;;;;;4995703;28;20228;-63
2023/12/21 02:49:42;;;;;;;0.60;0.60;;;3.60;99.90;;;;;;4995403;28;20172;-63
2023/12/21 02:52:07;;;;;;;0.60;0.60;;;3.40;99.90;;;;;;4995396;28;20223;-63
2023/12/21 02:54:33;;;;;;;0.40;0.40;;;3.40;99.90;;;;;;4995755;28;20548;-63
2023/12/21 02:56:58;;;;;;;0.37;0.37;;;3.40;99.90;;;;;;4995424;28;20200;-62
2023/12/21 02:59:24;;;;;;;0.60;0.60;;;3.50;99.90;;;;;;4995485;28;20242;-62
2023/12/21 03:01:50;;;;;;;0.30;0.30;;;3.50;99.90;;;;;;4995232;28;20191;-63
2023/12/21 03:04:15;;;;;;;1.00;1.00;;;3.50;99.90;;;;;;4995341;28;20183;-62
2023/12/21 03:06:41;;;;;;;0.47;0.47;;;3.40;99.90;;;;;;4995218;28;20176;-62
2023/12/21 03:09:07;;;;;;;0.30;0.30;;;3.50;99.90;;;;;;4995491;28;20210;-62
2023/12/21 03:11:32;;;;;;;0.33;0.33;;;3.70;99.90;;;;;;4995023;28;20277;-63
2023/12/21 03:13:58;;;;;;;0.40;0.40;;;3.50;99.90;;;;;;4995243;28;20646;-63
2023/12/21 03:16:24;;;;;;;0.30;0.30;;;3.40;99.90;;;;;;4995257;28;20168;-62
2023/12/21 03:18:49;;;;;;;0.50;0.50;;;3.40;99.90;;;;;;4995030;28;20176;-63
2023/12/21 03:21:15;;;;;;;0.60;0.60;;;3.40;99.90;;;;;;4994685;28;20195;-63
2023/12/21 03:23:41;;;;;;;0.40;0.40;;;3.60;99.90;;;;;;4995036;28;20242;-63
2023/12/21 03:26:10;;;;;;;0.65;0.65;;;3.70;99.90;;;;;;4994963;28;20176;-63
2023/12/21 03:28:36;;;;;;;0.35;0.35;;;3.70;99.90;;;;;;4994978;28;20187;-63
2023/12/21 03:31:08;;;;;;;0.30;0.30;;;3.80;99.90;;;;;;4994515;28;20271;-63
2023/12/21 03:33:34;;;;;;;0.40;0.40;;;3.80;99.90;;;;;;4993752;28;20595;-63
2023/12/21 03:35:59;;;;;;;0.40;0.40;;;3.80;99.90;;;;;;4994785;28;20188;-62
2023/12/21 03:38:25;;;;;;;0.40;0.40;;;3.80;99.90;;;;;;4993744;28;20243;-63
2023/12/21 03:40:50;;;;;;;0.50;0.50;;;3.70;99.90;;;;;;4994152;28;20262;-63
2023/12/21 03:43:16;;;;;;;0.87;0.40;;;3.80;99.90;;;;;;4994637;28;20172;-63
2023/12/21 03:45:41;;;;;;;1.03;0.93;;;3.90;99.90;;;;;;4994621;28;20175;-62
2023/12/21 03:48:10;;;;;;;0.70;0.70;;;3.90;99.90;;;;;;4994474;28;20677;-62
2023/12/21 03:50:36;;;;;;;0.40;0.40;;;3.90;99.90;;;;;;4994218;28;20173;-63
2023/12/21 03:53:03;;;;;;;0.60;0.60;;;4.00;99.90;;;;;;4994582;28;20235;-63
2023/12/21 03:55:29;;;;;;;0.50;0.50;;;4.00;99.90;;;;;;4994323;28;20180;-63
2023/12/21 03:57:56;;;;;;;0.40;0.40;;;4.00;99.90;;;;;;4994342;28;20204;-63
2023/12/21 04:00:22;;;;;;;0.40;0.40;;;4.10;99.90;;;;;;4994009;28;20250;-63
2023/12/21 04:02:48;;;;;;;0.85;0.85;;;4.20;99.90;;;;;;4994193;28;20572;-63
2023/12/21 04:05:14;;;;;;;1.27;1.27;;;4.10;99.90;;;;;;4994289;28;20180;-63
2023/12/21 04:07:40;;;;;;;0.40;0.40;;;4.20;99.90;;;;;;4994230;28;20909;-63
2023/12/21 04:10:06;;;;;;;0.40;0.40;;;4.10;99.90;;;;;;4993847;28;20263;-62
2023/12/21 04:12:32;;;;;;;0.88;0.60;;;4.00;99.90;;;;;;4994083;28;20197;-62
2023/12/21 04:14:57;;;;;;;0.50;0.50;;;4.00;99.90;;;;;;4994146;28;20199;-63
2023/12/21 04:17:23;;;;;;;0.40;0.40;;;3.90;99.90;;;;;;4994060;28;20541;-62
2023/12/21 04:19:49;;;;;;;1.43;1.30;;;4.00;99.90;;;;;;4993819;28;20184;-63
2023/12/21 04:22:14;;;;;;;0.60;0.60;;;4.10;99.90;;;;;;4993921;28;20564;-62
2023/12/21 04:24:44;;;;;;;0.43;0.43;;;4.10;99.90;;;;;;4993948;28;20169;-63
2023/12/21 04:27:12;;;;;;;0.60;0.60;;;4.10;99.90;;;;;;4993828;28;20184;-62
2023/12/21 04:29:38;;;;;;;0.35;0.35;;;4.20;99.90;;;;;;4993698;28;20176;-63
2023/12/21 04:32:08;;;;;;;0.50;0.50;;;4.20;99.90;;;;;;4993458;28;20192;-63
2023/12/21 04:34:33;;;;;;;0.65;0.65;;;4.00;99.90;;;;;;4993756;28;20192;-62
2023/12/21 04:36:59;;;;;;;0.37;0.37;;;4.00;99.90;;;;;;4993669;28;20202;-63
2023/12/21 04:39:24;;;;;;;0.43;0.43;;;4.00;99.90;;;;;;4993472;28;20168;-63
2023/12/21 04:41:50;;;;;;;0.50;0.50;;;4.10;99.90;;;;;;4993329;28;20203;-63
2023/12/21 04:44:16;;;;;;;0.40;0.40;;;4.20;99.90;;;;;;4993495;28;20540;-63
2023/12/21 04:46:44;;;;;;;0.82;0.82;;;4.30;99.90;;;;;;4993402;28;20191;-63
2023/12/21 04:49:10;;;;;;;0.50;0.45;;;4.40;99.90;;;;;;4993262;28;20182;-62
2023/12/21 04:51:35;;;;;;;0.90;0.60;;;4.40;99.90;;;;;;4993069;28;20197;-63
2023/12/21 04:54:01;;;;;;;0.40;0.40;;;4.40;99.90;;;;;;4993506;28;20178;-63
2023/12/21 04:56:26;;;;;;;0.40;0.40;;;4.30;99.90;;;;;;4993269;28;20554;-63
2023/12/21 04:58:52;;;;;;;0.40;0.40;;;4.20;99.90;;;;;;4993200;28;20230;-63
2023/12/21 05:01:18;;;;;;;0.30;0.30;;;4.40;99.90;;;;;;4992952;28;20192;-63
2023/12/21 05:03:43;;;;;;;0.40;0.40;;;4.50;99.90;;;;;;4993362;28;20176;-62
2023/12/21 05:06:09;;;;;;;0.30;0.30;;;4.40;99.90;;;;;;4993208;28;20705;-62
2023/12/21 05:08:35;;;;;;;0.50;0.50;;;4.40;99.90;;;;;;4993134;28;20238;-63
2023/12/21 05:11:00;;;;;;;0.30;0.30;;;4.50;99.90;;;;;;4992797;28;20192;-63
2023/12/21 05:13:26;;;;;;;0.50;0.50;;;4.50;99.90;;;;;;4992986;28;20677;-63
2023/12/21 05:15:52;;;;;;;0.50;0.50;;;4.50;99.90;;;;;;4992987;28;20349;-62
2023/12/21 05:18:17;;;;;;;0.30;0.30;;;4.40;99.90;;;;;;4992913;28;20196;-63
2023/12/21 05:20:43;;;;;;;0.40;0.40;;;4.50;99.90;;;;;;4992528;28;20191;-63
2023/12/21 05:23:08;;;;;;;0.30;0.30;;;4.60;99.90;;;;;;4992868;28;20538;-63
2023/12/21 05:25:34;;;;;;;0.30;0.30;;;4.70;99.90;;;;;;4992886;28;20176;-62
2023/12/21 05:28:00;;;;;;;0.30;0.30;;;4.70;99.90;;;;;;4992740;28;20219;-63
2023/12/21 05:30:25;;;;;;;0.30;0.30;;;4.80;99.90;;;;;;4992308;28;20673;-63
2023/12/21 05:32:51;;;;;;;0.40;0.40;;;4.70;99.90;;;;;;4992748;28;20187;-62
2023/12/21 05:35:16;;;;;;;0.30;0.30;;;4.80;99.90;;;;;;4992765;28;20180;-63
2023/12/21 05:37:42;;;;;;;0.30;0.30;;;4.80;99.90;;;;;;4992575;28;20212;-63
2023/12/21 05:40:08;;;;;;;0.30;0.30;;;4.80;99.90;;;;;;4992231;28;20179;-62
2023/12/21 05:42:34;;;;;;;0.40;0.40;;;4.60;99.90;;;;;;4992384;28;20218;-62
2023/12/21 05:45:00;;;;;;;0.40;0.40;;;4.60;99.90;;;;;;4992946;28;20180;-63
2023/12/21 05:47:25;;;;;;;0.40;0.40;;;4.70;99.90;;;;;;4992503;28;20172;-63
2023/12/21 05:49:51;;;;;;;0.30;0.30;;;4.70;99.90;;;;;;4992350;28;20208;-63
2023/12/21 05:52:17;;;;;;;0.30;0.30;;;4.70;99.90;;;;;;4992286;28;20188;-63
2023/12/21 05:54:43;;;;;;;0.32;0.32;;;4.80;99.90;;;;;;4992478;28;20561;-63
2023/12/21 05:57:12;;;;;;;0.33;0.33;;;4.80;99.90;;;;;;4992312;28;20298;-63
2023/12/21 05:59:38;;;;;;;0.40;0.40;;;4.90;99.90;;;;;;4991707;28;20254;-63
2023/12/21 06:02:04;;;;;;;0.40;0.40;;;5.00;99.90;;;;;;4992052;28;20267;-63
2023/12/21 06:04:30;;;;;;;0.30;0.30;;;5.00;99.90;;;;;;4992319;28;20407;-62
2023/12/21 06:06:56;;;;;;;0.35;0.35;;;4.90;99.90;;;;;;4992285;28;20458;-63
2023/12/21 06:09:22;;;;;;;0.40;0.40;;;5.00;99.90;;;;;;4992167;28;20181;-63
2023/12/21 06:11:47;;;;;;;0.30;0.30;;;5.00;99.90;;;;;;4992048;28;20200;-62
2023/12/21 06:14:13;;;;;;;0.40;0.40;;;5.00;99.90;;;;;;4992199;28;20407;-62
2023/12/21 06:16:39;;;;;;;0.40;0.40;;;5.10;99.90;;;;;;4992152;28;20242;-63
2023/12/21 06:19:09;;;;;;;0.40;0.40;;;5.00;99.90;;;;;;4992261;28;20200;-62
2023/12/21 06:21:38;;;;;;;0.38;0.38;;;5.00;99.90;;;;;;4991811;28;20678;-62
2023/12/21 06:24:05;;;;;;;0.30;0.30;;;5.10;99.90;;;;;;4992125;28;20185;-62
2023/12/21 06:26:31;;;;;;;0.30;0.30;;;5.10;99.90;;;;;;4992092;28;20180;-62
2023/12/21 06:28:57;;;;;;;0.30;0.30;;;5.00;99.90;;;;;;4992095;28;20168;-62
2023/12/21 06:31:23;;;;;;;0.40;0.40;;;5.00;99.90;;;;;;4991756;28;20460;-63
2023/12/21 06:33:49;;;;;;;0.30;0.30;;;5.00;99.90;;;;;;4992338;28;20177;-62
2023/12/21 06:36:15;;;;;;;0.40;0.40;;;5.10;99.90;;;;;;4992052;28;20177;-63
2023/12/21 06:38:41;;;;;;;0.50;0.40;;;5.10;99.90;;;;;;4992047;28;20207;-63
2023/12/21 06:41:07;;;;;;;0.30;0.30;;;5.20;99.90;;;;;;4991495;28;20209;-62
2023/12/21 06:43:32;;;;;;;0.40;0.40;;;4.90;99.90;;;;;;4992039;28;20204;-62
2023/12/21 06:45:58;;;;;;;0.40;0.40;;;4.90;99.90;;;;;;4992118;28;20412;-63
2023/12/21 06:48:24;;;;;;;0.40;0.40;;;5.00;99.90;;;;;;4992036;28;20204;-62
2023/12/21 06:50:49;;;;;;;0.30;0.30;;;5.00;99.90;;;;;;4991581;28;20238;-63
2023/12/21 06:53:15;;;;;;;0.80;0.60;;;5.00;99.90;;;;;;4992017;28;20205;-63
2023/12/21 06:55:44;;;;;;;0.40;0.40;;;4.90;99.90;;;;;;4991740;28;20179;-62
2023/12/21 06:58:10;;;;;;;0.50;0.50;;;5.00;99.90;;;;;;4991783;28;20290;-62
2023/12/21 07:00:36;;;;;;;0.40;0.40;;;5.00;99.90;;;;;;4991453;28;20255;-62
2023/12/21 07:03:02;;;;;;;0.30;0.30;;;5.10;99.90;;;;;;4991844;28;20422;-63
2023/12/21 07:05:28;;;;;;;0.40;0.40;;;5.10;99.90;;;;;;4991777;28;20168;-62
2023/12/21 07:07:57;;;;;;;0.40;0.40;;;5.10;99.90;;;;;;4991854;28;20184;-62
2023/12/21 07:10:22;;;;;;;0.32;0.32;;;5.10;99.90;;;;;;4991273;28;20226;-63
2023/12/21 07:12:48;;;;;;;0.50;0.47;;;5.10;99.90;;;;;;4993367;28;20229;-63
2023/12/21 07:15:14;;;;;;;0.40;0.40;;;5.10;99.90;;;;;;4995314;28;20180;-62
2023/12/21 07:17:40;;;;;;;0.40;0.40;;;5.00;99.90;;;;;;4995154;28;20208;-63
2023/12/21 07:20:07;;;;;;;0.30;0.30;;;4.90;99.90;;;;;;4994806;28;20183;-62
2023/12/21 07:22:32;;;;;;;0.50;0.50;;;5.00;99.90;;;;;;4995040;28;20868;-62
2023/12/21 07:24:58;;;;;;;0.40;0.40;;;4.90;99.90;;;;;;4994977;28;20211;-63
2023/12/21 07:27:24;;;;;;;0.87;0.87;;;4.90;99.90;;;;;;4995108;28;20318;-62
2023/12/21 07:29:50;;;;;;;0.30;0.30;;;4.90;99.90;;;;;;4994804;28;20184;-63
2023/12/21 07:32:16;;;;;;;0.40;0.40;;;4.90;99.90;;;;;;4994823;28;20219;-63
2023/12/21 07:34:42;;;;;;;0.80;0.80;;;4.90;99.90;;;;;;4994841;28;20176;-62
2023/12/21 07:37:08;;;;;;;2.30;1.60;;;4.90;99.90;;;;;;4994747;28;20208;-62
2023/12/21 07:39:34;;;;;;;0.30;0.30;;;5.00;99.90;;;;;;4994595;28;20404;-63
2023/12/21 07:42:01;;;;;;;0.50;0.50;;;5.10;99.90;;;;;;4994449;28;20213;-62
2023/12/21 07:44:29;;;;;;;0.40;0.40;;;5.10;99.90;;;;;;4994670;28;20171;-63
2023/12/21 07:46:54;;;;;;;0.40;0.40;;;5.10;99.90;;;;;;4994626;28;20178;-63
2023/12/21 07:49:20;;;;;;;0.50;0.50;;;5.10;99.90;;;;;;4994456;28;20678;-63
2023/12/21 07:51:46;;;;;;;0.30;0.30;;;5.10;99.90;;;;;;4994347;28;20199;-62
2023/12/21 07:54:12;;;;;;;1.33;0.73;;;5.00;99.90;;;;;;4994406;28;20658;-62
2023/12/21 07:56:37;;;;;;;0.40;0.40;;;5.00;99.90;;;;;;4994397;28;20267;-62
2023/12/21 07:59:06;;;;;;;0.30;0.30;;;5.10;99.90;;;;;;4994398;28;20186;-62
2023/12/21 08:01:32;;;;;;;0.50;0.50;;;5.20;99.90;;;;;;4994103;28;20208;-62
2023/12/21 08:03:58;;;;;;;0.40;0.40;;;5.20;99.90;;;;;;4994338;28;20592;-62
2023/12/21 08:06:24;;;;;;;1.13;0.80;;;5.20;99.90;;;;;;4994182;28;20160;-62
2023/12/21 08:08:52;;;;;;;0.30;0.30;;;5.30;99.90;;;;;;4994243;28;20555;-63
2023/12/21 08:11:21;;;;;;;0.30;0.30;;;5.30;99.90;;;;;;4993921;28;20188;-62
2023/12/21 08:13:47;;;;;;;0.50;0.50;;;5.30;99.90;;;;;;4994181;28;20169;-62
2023/12/21 08:16:13;;;;;;;0.50;0.50;;;5.40;99.90;;;;;;4994423;28;20172;-63
2023/12/21 08:18:38;;;;;;;0.40;0.40;;;5.50;99.90;;;;;;4993971;28;20447;-63
2023/12/21 08:21:04;;;;;;;0.30;0.30;;;5.60;99.90;;;;;;4993565;28;20956;-62
2023/12/21 08:23:29;;;;;;;0.40;0.40;;;5.70;99.90;;;;;;4993589;28;20180;-63
2023/12/21 08:25:55;;;;;;;0.37;0.37;;;5.70;99.90;;;;;;4993891;28;20203;-62
2023/12/21 08:28:21;;;;;;;0.63;0.63;;;5.50;99.90;;;;;;4993923;28;20331;-63
2023/12/21 08:30:46;;;;;;;0.37;0.37;;;5.50;99.90;;;;;;4993454;28;20194;-63
2023/12/21 08:33:12;;;;;;;0.30;0.30;;;5.60;99.90;;;;;;4993752;28;20213;-62
2023/12/21 08:35:38;;;;;;;0.40;0.40;;;5.60;99.90;;;;;;4993681;28;20178;-63
2023/12/21 08:38:03;;;;;;;0.40;0.40;;;5.70;99.90;;;;;;4993637;28;20698;-63
2023/12/21 08:40:30;;;;;;;0.40;0.40;;;5.60;99.90;;;;;;4993139;28;20254;-63
2023/12/21 08:42:56;;;;;;;0.95;0.70;;;5.60;99.90;;;;;;4993566;28;20174;-63
2023/12/21 08:45:22;;;;;;;0.30;0.30;;;5.50;99.90;;;;;;4993599;28;20259;-63
2023/12/21 08:47:48;;;;;;;0.40;0.40;;;5.40;99.90;;;;;;4993463;28;20187;-63
2023/12/21 08:50:14;;;;;;;0.30;0.30;;;5.50;99.90;;;;;;4993041;28;20195;-62
2023/12/21 08:52:41;;;;;;;0.37;0.37;;;5.60;99.90;;;;;;4993402;28;20200;-63
2023/12/21 08:55:08;;;;;;;0.50;0.50;;;5.80;99.90;;;;;;4993338;28;20952;-63
2023/12/21 08:57:36;;;;;;;0.32;0.32;;;5.80;99.90;;;;;;4993312;28;20591;-63
2023/12/21 09:00:05;;;;;;;0.30;0.30;;;5.80;99.90;;;;;;4992998;28;20181;-62
2023/12/21 09:02:32;;;;;;;0.30;0.30;;;5.80;99.90;;;;;;4993183;28;20572;-63
2023/12/21 09:04:58;;;;;;;0.30;0.30;;;5.80;99.90;;;;;;4993091;28;20183;-63
2023/12/21 09:07:24;;;;;;;1.80;1.05;;;5.70;99.90;;;;;;4993301;28;20185;-63
2023/12/21 09:09:51;;;;;;;0.60;0.60;;;5.80;99.90;;;;;;4992812;28;20551;-63
2023/12/21 09:12:18;;;;;;;0.47;0.40;;;5.80;99.90;;;;;;4993084;28;20957;-63
2023/12/21 09:14:44;;;;;;;0.38;0.38;;;5.90;99.90;;;;;;4993013;28;20563;-62
2023/12/21 09:17:10;;;;;;;0.98;0.50;;;6.00;99.90;;;;;;4992831;28;20204;-63
2023/12/21 09:19:36;;;;;;;0.50;0.50;;;6.00;99.90;;;;;;4992772;28;20177;-63
2023/12/21 09:22:01;;;;;;;0.40;0.40;;;6.10;99.90;;;;;;4992688;28;20559;-63
2023/12/21 09:24:27;;;;;;;0.30;0.30;;;6.20;99.90;;;;;;4993057;28;20260;-63
2023/12/21 09:26:52;;;;;;;0.30;0.30;;;6.10;99.90;;;;;;4992972;28;20182;-63
2023/12/21 09:29:18;;;;;;;0.30;0.30;;;6.10;99.90;;;;;;4992708;28;20168;-62
2023/12/21 09:31:44;;;;;;;0.40;0.40;;;6.10;99.90;;;;;;4993005;28;20606;-62
2023/12/21 09:34:11;;;;;;;0.40;0.40;;;6.10;99.90;;;;;;4974965;28;20622;-62
2023/12/21 09:36:36;;;;;;;0.30;0.30;;;6.10;99.90;;;;;;4992123;28;20191;-62
2023/12/21 09:39:03;;;;;;;0.30;0.30;;;6.20;99.90;;;;;;4992592;28;20190;-63
2023/12/21 09:41:29;;;;;;;0.40;0.40;;;6.20;99.90;;;;;;4992378;28;20600;-62
2023/12/21 09:43:57;;;;;;;0.30;0.30;;;6.10;99.90;;;;;;4992596;28;20234;-62
2023/12/21 09:46:25;;;;;;;0.30;0.30;;;6.20;99.90;;;;;;4992447;28;20659;-62
2023/12/21 09:48:53;;;;;;;0.30;0.30;;;6.10;99.90;;;;;;4992420;28;20182;-62
2023/12/21 09:51:20;;;;;;;0.40;0.40;;;6.10;99.90;;;;;;4992277;28;20579;-63
2023/12/21 09:53:47;;;;;;;0.40;0.40;;;6.20;99.90;;;;;;4992577;28;20558;-62
2023/12/21 09:56:14;;;;;;;0.40;0.40;;;6.20;99.90;;;;;;4992411;28;20176;-62
2023/12/21 09:58:41;;;;;;;0.30;0.30;;;6.30;99.90;;;;;;4992319;28;20200;-62
2023/12/21 10:01:07;;;;;;;0.38;0.38;;;6.20;99.90;;;;;;4991894;28;20184;-63
2023/12/21 10:03:34;;;;;;;0.30;0.30;;;6.20;99.90;;;;;;4992223;28;20531;-63
2023/12/21 10:06:03;;;;;;;0.30;0.30;;;6.30;99.90;;;;;;4992277;28;20411;-63
2023/12/21 10:08:29;;;;;;;0.40;0.40;;;6.40;99.90;;;;;;4992308;28;20663;-62
2023/12/21 10:10:54;;;;;;;0.30;0.30;;;6.40;99.90;;;;;;4991864;28;20290;-63
2023/12/21 10:13:20;;;;;;;0.50;0.50;;;6.40;99.90;;;;;;4992450;28;20608;-62
2023/12/21 10:15:46;;;;;;;0.30;0.30;;;6.40;99.90;;;;;;4992131;28;20659;-62
2023/12/21 10:18:12;;;;;;;0.40;0.40;;;6.40;99.90;;;;;;4992321;28;20302;-63
2023/12/21 10:20:39;;;;;;;0.30;0.30;;;6.40;99.90;;;;;;4991915;28;20267;-62
2023/12/21 10:23:04;;;;;;;0.30;0.30;;;6.40;99.90;;;;;;4992139;28;20302;-63
2023/12/21 10:25:30;;;;;;;0.40;0.40;;;6.40;99.90;;;;;;4992201;28;20275;-62
2023/12/21 10:27:56;;;;;;;0.30;0.30;;;6.40;99.90;;;;;;4992175;28;20213;-62
2023/12/21 10:30:26;;;;;;;0.40;0.40;;;6.30;99.90;;;;;;4991629;28;20170;-62
2023/12/21 10:32:57;;;;;;;0.32;0.32;;;6.30;99.90;;;;;;4992272;28;20184;-63
2023/12/21 10:35:23;;;;;;;0.50;0.50;;;6.40;99.90;;;;;;4992226;28;20183;-63
2023/12/21 10:37:49;;;;;;;0.40;0.40;;;6.50;99.90;;;;;;4992015;28;20691;-63
2023/12/21 10:40:16;;;;;;;0.32;0.32;;;6.50;99.90;;;;;;4991732;28;20414;-62
2023/12/21 10:42:47;;;;;;;0.38;0.38;;;6.40;99.90;;;;;;4991781;28;20222;-63
2023/12/21 10:45:19;;;;;;;0.30;0.30;;;6.40;99.90;;;;;;4992164;28;20180;-63
2023/12/21 10:47:52;;;;;;;0.30;0.30;;;6.50;99.90;;;;;;4995162;28;20194;-63
2023/12/21 10:50:19;;;;;;;0.50;0.50;;;6.30;99.90;;;;;;4995725;28;20740;-63
2023/12/21 10:52:48;;;;;;;0.30;0.30;;;6.40;99.90;;;;;;4995574;28;20685;-63
2023/12/21 10:55:15;;;;;;;0.30;0.30;;;6.40;99.90;;;;;;4995569;28;20182;-62
2023/12/21 10:57:42;;;;;;;0.30;0.30;;;6.30;99.90;;;;;;4995656;28;20219;-62
2023/12/21 11:00:15;;;;;;;0.30;0.30;;;6.30;99.90;;;;;;4995104;28;20178;-62
2023/12/21 11:02:43;;;;;;;0.30;0.30;;;6.40;99.90;;;;;;4995362;28;20203;-62
2023/12/21 11:05:10;;;;;;;0.40;0.40;;;6.40;99.90;;;;;;4995414;28;20235;-63
2023/12/21 11:07:37;;;;;;;0.30;0.30;;;6.40;99.90;;;;;;4995332;28;20187;-63
2023/12/21 11:10:05;;;;;;;0.40;0.40;;;6.40;99.90;;;;;;4995012;28;20179;-62
2023/12/21 11:12:30;;;;;;;0.40;0.40;;;6.30;99.90;;;;;;4995515;28;20209;-62
2023/12/21 11:14:57;;;;;;;0.30;0.30;;;6.20;99.90;;;;;;4995223;28;20172;-62
2023/12/21 11:17:24;;;;;;;0.30;0.30;;;6.10;99.90;;;;;;4995105;28;20209;-63
2023/12/21 11:19:51;;;;;;;0.30;0.30;;;6.20;99.90;;;;;;4994843;28;20235;-63
2023/12/21 11:22:17;;;;;;;0.52;0.52;;;6.20;99.90;;;;;;4994845;28;20277;-63
2023/12/21 11:24:44;;;;;;;1.10;0.45;;;6.30;99.90;;;;;;4995078;28;20178;-63
2023/12/21 11:27:12;;;;;;;0.30;0.30;;;6.30;99.90;;;;;;4995018;28;20197;-62
2023/12/21 11:29:37;;;;;;;0.30;0.30;;;6.20;99.90;;;;;;4994753;28;20181;-62
2023/12/21 11:32:05;;;;;;;0.40;0.40;;;6.10;99.90;;;;;;4994706;28;20242;-62
2023/12/21 11:34:35;;;;;;;0.30;0.30;;;6.10;99.90;;;;;;4994912;28;20189;-62
2023/12/21 11:37:25;;;;;;;0.30;0.30;;;6.20;99.90;;;;;;4994748;28;20206;-63
2023/12/21 11:39:59;;;;;;;0.30;0.30;;;6.30;99.90;;;;;;4994541;28;20171;-63
2023/12/21 11:42:36;;;;;;;0.30;0.30;;;6.40;99.90;;;;;;4994577;28;20298;-62
2023/12/21 11:45:02;;;;;;;0.30;0.30;;;6.20;99.90;;;;;;4994901;28;20184;-63
2023/12/21 11:47:29;;;;;;;0.30;0.30;;;6.20;99.90;;;;;;4994569;28;20273;-62
2023/12/21 11:50:10;;;;;;;0.32;0.32;;;6.30;99.90;;;;;;4994464;28;20187;-62
2023/12/21 11:52:37;;;;;;;0.40;0.40;;;6.40;99.90;;;;;;4994486;28;20205;-63
2023/12/21 11:55:03;;;;;;;0.30;0.30;;;6.50;99.90;;;;;;4994663;28;20200;-63
2023/12/21 11:57:31;;;;;;;0.40;0.40;;;6.60;99.90;;;;;;4993845;28;20198;-63
2023/12/21 12:00:18;;;;;;;0.30;0.30;;;6.50;99.90;;;;;;4993825;28;20185;-62
2023/12/21 12:02:48;;;;;;;0.40;0.40;;;6.50;99.90;;;;;;4994438;28;20571;-63
2023/12/21 12:05:22;;;;;;;0.30;0.30;;;6.50;99.90;;;;;;4994377;28;20654;-63
2023/12/21 12:07:49;;;;;;;0.30;0.30;;;6.40;99.90;;;;;;4994302;28;20230;-63
2023/12/21 12:10:17;;;;;;;0.30;0.30;;;6.30;99.90;;;;;;4993764;28;20262;-62
2023/12/21 12:12:46;;;;;;;0.40;0.40;;;6.20;99.90;;;;;;4994287;28;20591;-62
2023/12/21 12:15:12;;;;;;;0.60;0.60;;;6.20;99.90;;;;;;4994283;28;20241;-63
2023/12/21 12:17:43;;;;;;;0.30;0.30;;;6.30;99.90;;;;;;4994113;28;20212;-62
2023/12/21 12:20:10;;;;;;;0.30;0.30;;;6.30;99.90;;;;;;4993747;28;20406;-63
2023/12/21 12:22:36;;;;;;;0.30;0.30;;;6.30;99.90;;;;;;4993931;28;20199;-62
2023/12/21 12:25:03;;;;;;;0.40;0.40;;;6.40;99.90;;;;;;4993909;28;20273;-62
2023/12/21 12:27:30;;;;;;;0.90;0.90;;;6.60;99.90;;;;;;4993875;28;20197;-63
2023/12/21 12:29:56;;;;;;;0.30;0.30;;;6.70;99.90;;;;;;4993606;28;20168;-62
2023/12/21 12:32:22;;;;;;;0.30;0.30;;;6.70;99.90;;;;;;4993813;28;20587;-63
2023/12/21 12:34:47;;;;;;;0.40;0.40;;;6.50;99.90;;;;;;4993843;28;20187;-63
2023/12/21 12:37:15;;;;;;;0.40;0.40;;;6.40;99.90;;;;;;4993600;28;20217;-62
2023/12/21 12:39:41;;;;;;;0.40;0.40;;;6.50;99.90;;;;;;4993720;28;20237;-63
2023/12/21 12:42:09;;;;;;;0.47;0.47;;;6.60;99.90;;;;;;4993350;28;20218;-63
2023/12/21 12:44:35;;;;;;;0.40;0.40;;;6.50;99.90;;;;;;4993580;28;20542;-63
2023/12/21 12:47:01;;;;;;;0.40;0.40;;;6.60;99.90;;;;;;4993595;28;20187;-63
2023/12/21 12:49:27;;;;;;;0.35;0.35;;;6.60;99.90;;;;;;4993366;28;20178;-63
2023/12/21 12:51:54;;;;;;;0.30;0.30;;;6.40;99.90;;;;;;4993211;28;20220;-63
2023/12/21 12:54:20;;;;;;;0.35;0.35;;;6.50;99.90;;;;;;4993370;28;20656;-63